METAR Data
IDs: Format: Raw Decoded Include TAF

Data at: 1526 UTC 24 Aug 2019

PAGA 241456Z AUTO 00000KT 10SM CLR 01/M01 A2981 RMK AO2 SLP095 T00061011 51013 FZRANO
PAGA 241356Z AUTO 29003KT 10SM CLR 03/01 A2979 RMK AO2 SLP090 T00280011
PAGA 241256Z AUTO 27004KT 10SM CLR 02/01 A2978 RMK AO2 SLP086 T00170006 FZRANO
PAGA 241056Z AUTO 00000KT 10SM CLR 03/01 A2976 RMK AO2 SLP078 T00330006
PAGA 240956Z AUTO 00000KT 10SM CLR 04/01 A2975 RMK AO2 SLP074 T00440011
PAGA 240856Z AUTO 30003KT 10SM CLR 07/01 A2974 RMK AO2 SLP072 T00720011 401440061 52014
PAGA 240756Z AUTO 31003KT 10SM CLR 08/02 A2972 RMK AO2 SLP067 T00780022
PAGA 240656Z AUTO 33003KT 10SM CLR 10/03 A2971 RMK AO2 SLP062 T01000028
PAGA 240556Z AUTO 00000KT 10SM CLR 12/05 A2969 RMK AO2 SLP056 T01170050 10144 20117 53006
PAGA 240456Z AUTO 27005KT 10SM CLR 13/05 A2968 RMK AO2 SLP052 T01330050
PAGA 240356Z AUTO 28006KT 10SM CLR 14/04 A2968 RMK AO2 SLP051 T01390044
PAGA 240256Z AUTO 34003KT 10SM BKN055 14/04 A2968 RMK AO2 SLP052 T01390039 55001
PAGA 240156Z AUTO 29011KT 10SM OVC050 14/04 A2967 RMK AO2 SLP049 T01440044
PAGA 240056Z AUTO 29008KT 10SM OVC050 13/04 A2968 RMK AO2 SLP050 T01330044
PAGA 232356Z AUTO 33007KT 10SM OVC044 13/04 A2968 RMK AO2 SLP052 T01330039 10144 20089 53003
PAGA 232256Z AUTO 31010KT 10SM BKN042 BKN075 14/04 A2967 RMK AO2 SLP050 T01390044
PAGA 232156Z AUTO 30009KT 10SM SCT040 14/04 A2967 RMK AO2 SLP048 T01390044
PAGA 232056Z AUTO 30008KT 10SM FEW050 13/05 A2967 RMK AO2 SLP048 T01280050 58002
PAGA 231956Z AUTO 29008KT 10SM OVC055 11/06 A2967 RMK AO2 SLP050 T01110056
PAGA 231856Z AUTO 28008KT 10SM FEW065 OVC075 10/06 A2968 RMK AO2 SLP051 T01000056
PAGA 231756Z AUTO 26007KT 10SM BKN070 09/06 A2968 RMK AO2 SLP050 T00890061 10089 20061 50002
PAGA 231656Z AUTO 25006KT 10SM CLR 07/06 A2968 RMK AO2 SLP052 T00720056
PAGA 231556Z AUTO 26005KT 10SM CLR 06/06 A2968 RMK AO2 SLP052 T00610056
PAGA 231456Z AUTO 29005KT 10SM CLR 06/05 A2967 RMK AO2 SLP049 T00610050 53004
PAGA 231356Z AUTO 29006KT 10SM CLR 07/05 A2967 RMK AO2 SLP047 T00720050
PAGA 231256Z AUTO 30005KT 10SM CLR 07/05 A2966 RMK AO2 SLP044 T00720050
PAGA 231156Z AUTO 31004KT 10SM FEW120 08/05 A2966 RMK AO2 SLP044 T00780050 10128 20067 58003
PAGA 231056Z AUTO 29004KT 10SM CLR 08/05 A2966 RMK AO2 SLP046 T00830050
PAGA 230956Z AUTO 28004KT 10SM FEW120 08/04 A2967 RMK AO2 SLP047 T00780039
PAGA 230856Z AUTO 00000KT 10SM CLR 09/04 A2967 RMK AO2 SLP047 T00890039 401670089 53008
PAGA 230756Z AUTO 33003KT 10SM CLR 09/04 A2966 RMK AO2 SLP044 T00940039
PAGA 230656Z AUTO 33003KT 10SM CLR 11/05 A2965 RMK AO2 SLP041 T01110050
PAGA 230556Z AUTO 00000KT 10SM CLR 13/06 A2964 RMK AO2 SLP039 T01330061 10167 20133 55002
PAGA 230456Z AUTO 31004KT 10SM CLR 15/06 A2964 RMK AO2 SLP038 T01500061
PAGA 230356Z AUTO 30005KT 10SM SCT060 16/06 A2964 RMK AO2 SLP038 T01610061